RJTK(METAR)
08/13 14:00
METAR RJTK 130500Z 24011KT 9999 FEW030 BKN250 34/25 Q1007 RMK 1CU030
6CI250 A2975=
戻る
トップページへ戻る
IMOC Co,.Ltd.